sensor_id;sensor_type;location;lat;lon;timestamp;pressure;altitude;pressure_sealevel;temperature;humidity
23118;BME280;11728;50.624;6.014;2023-04-28T00:03:15;97917.25;;;12.99;68.00
23118;BME280;11728;50.624;6.014;2023-04-28T00:08:36;97911.47;;;12.88;69.07
23118;BME280;11728;50.624;6.014;2023-04-28T00:13:57;97913.09;;;12.92;68.88
23118;BME280;11728;50.624;6.014;2023-04-28T00:19:18;97915.00;;;12.87;69.12
23118;BME280;11728;50.624;6.014;2023-04-28T00:24:39;97905.25;;;12.89;68.94
23118;BME280;11728;50.624;6.014;2023-04-28T00:30:01;97892.75;;;12.93;68.89
23118;BME280;11728;50.624;6.014;2023-04-28T00:35:22;97880.19;;;12.98;69.10
23118;BME280;11728;50.624;6.014;2023-04-28T00:40:43;97877.41;;;13.01;68.73
23118;BME280;11728;50.624;6.014;2023-04-28T00:46:03;97868.56;;;13.02;68.98
23118;BME280;11728;50.624;6.014;2023-04-28T00:51:24;97866.56;;;13.06;68.98
23118;BME280;11728;50.624;6.014;2023-04-28T00:56:47;97845.78;;;12.96;69.77
23118;BME280;11728;50.624;6.014;2023-04-28T01:02:08;97852.66;;;13.02;69.44
23118;BME280;11728;50.624;6.014;2023-04-28T01:07:29;97842.88;;;13.02;69.21
23118;BME280;11728;50.624;6.014;2023-04-28T01:12:50;97832.75;;;13.13;68.77
23118;BME280;11728;50.624;6.014;2023-04-28T01:18:10;97832.63;;;13.16;68.75
23118;BME280;11728;50.624;6.014;2023-04-28T01:23:31;97844.00;;;13.18;69.16
23118;BME280;11728;50.624;6.014;2023-04-28T01:28:52;97854.50;;;13.21;69.90
23118;BME280;11728;50.624;6.014;2023-04-28T01:34:13;97844.16;;;13.15;71.04
23118;BME280;11728;50.624;6.014;2023-04-28T01:39:34;97834.22;;;13.20;71.43
23118;BME280;11728;50.624;6.014;2023-04-28T01:44:55;97844.56;;;13.26;72.16
23118;BME280;11728;50.624;6.014;2023-04-28T01:50:16;97840.94;;;13.28;72.77
23118;BME280;11728;50.624;6.014;2023-04-28T01:55:37;97838.97;;;13.33;72.89
23118;BME280;11728;50.624;6.014;2023-04-28T02:00:58;97838.66;;;13.41;72.15
23118;BME280;11728;50.624;6.014;2023-04-28T02:06:19;97825.38;;;13.41;72.29
23118;BME280;11728;50.624;6.014;2023-04-28T02:11:39;97799.66;;;13.43;71.94
23118;BME280;11728;50.624;6.014;2023-04-28T02:17:00;97784.25;;;13.31;73.03
23118;BME280;11728;50.624;6.014;2023-04-28T02:22:23;97789.03;;;13.23;74.53
23118;BME280;11728;50.624;6.014;2023-04-28T02:27:44;97793.19;;;13.28;74.97
23118;BME280;11728;50.624;6.014;2023-04-28T02:33:05;97785.78;;;13.36;74.76
23118;BME280;11728;50.624;6.014;2023-04-28T02:38:26;97793.72;;;13.38;75.18
23118;BME280;11728;50.624;6.014;2023-04-28T02:43:47;97788.25;;;13.41;75.09
23118;BME280;11728;50.624;6.014;2023-04-28T02:49:07;97801.69;;;13.36;76.40
23118;BME280;11728;50.624;6.014;2023-04-28T02:54:28;97786.25;;;13.46;76.18
23118;BME280;11728;50.624;6.014;2023-04-28T02:59:49;97779.91;;;13.50;76.60
23118;BME280;11728;50.624;6.014;2023-04-28T03:05:10;97770.41;;;13.44;77.26
23118;BME280;11728;50.624;6.014;2023-04-28T03:10:31;97764.19;;;13.45;77.88
23118;BME280;11728;50.624;6.014;2023-04-28T03:15:52;97755.56;;;13.40;79.13
23118;BME280;11728;50.624;6.014;2023-04-28T03:21:13;97752.97;;;13.39;79.26
23118;BME280;11728;50.624;6.014;2023-04-28T03:26:33;97734.34;;;13.40;79.82
23118;BME280;11728;50.624;6.014;2023-04-28T03:31:54;97738.94;;;13.37;80.45
23118;BME280;11728;50.624;6.014;2023-04-28T03:37:15;97726.78;;;13.31;81.61
23118;BME280;11728;50.624;6.014;2023-04-28T03:42:36;97716.50;;;13.24;82.71
23118;BME280;11728;50.624;6.014;2023-04-28T03:47:56;97705.88;;;13.24;82.84
23118;BME280;11728;50.624;6.014;2023-04-28T03:53:17;97664.00;;;13.12;85.02
23118;BME280;11728;50.624;6.014;2023-04-28T03:58:38;97650.72;;;12.92;87.24
23118;BME280;11728;50.624;6.014;2023-04-28T04:03:59;97660.63;;;12.87;88.70
23118;BME280;11728;50.624;6.014;2023-04-28T04:09:20;97681.34;;;12.99;88.42
23118;BME280;11728;50.624;6.014;2023-04-28T04:14:41;97697.00;;;13.05;88.47
23118;BME280;11728;50.624;6.014;2023-04-28T04:20:03;97706.41;;;13.12;88.52
23118;BME280;11728;50.624;6.014;2023-04-28T04:25:23;97720.22;;;13.20;89.10
23118;BME280;11728;50.624;6.014;2023-04-28T04:30:44;97727.97;;;13.24;89.43
23118;BME280;11728;50.624;6.014;2023-04-28T04:36:06;97730.44;;;13.29;89.84
23118;BME280;11728;50.624;6.014;2023-04-28T04:41:27;97723.03;;;13.37;89.51
23118;BME280;11728;50.624;6.014;2023-04-28T04:46:48;97731.44;;;13.46;89.52
23118;BME280;11728;50.624;6.014;2023-04-28T04:52:11;97728.72;;;13.48;90.04
23118;BME280;11728;50.624;6.014;2023-04-28T04:57:32;97725.78;;;13.54;90.18
23118;BME280;11728;50.624;6.014;2023-04-28T05:02:53;97717.44;;;13.43;91.99
23118;BME280;11728;50.624;6.014;2023-04-28T05:08:13;97708.56;;;13.44;92.05
23118;BME280;11728;50.624;6.014;2023-04-28T05:13:34;97719.94;;;13.46;92.31
23118;BME280;11728;50.624;6.014;2023-04-28T05:18:55;97715.19;;;13.54;92.46
23118;BME280;11728;50.624;6.014;2023-04-28T05:24:16;97713.00;;;13.63;92.44
23118;BME280;11728;50.624;6.014;2023-04-28T05:29:36;97723.38;;;13.68;92.82
23118;BME280;11728;50.624;6.014;2023-04-28T05:34:57;97711.91;;;13.87;92.89
23118;BME280;11728;50.624;6.014;2023-04-28T05:40:18;97698.22;;;13.96;93.22
23118;BME280;11728;50.624;6.014;2023-04-28T05:45:39;97689.03;;;14.03;93.24
23118;BME280;11728;50.624;6.014;2023-04-28T05:50:59;97692.97;;;14.14;93.20
23118;BME280;11728;50.624;6.014;2023-04-28T05:56:20;97714.63;;;14.24;93.74
23118;BME280;11728;50.624;6.014;2023-04-28T06:01:41;97725.84;;;14.30;94.20
23118;BME280;11728;50.624;6.014;2023-04-28T06:07:02;97738.13;;;14.33;94.55
23118;BME280;11728;50.624;6.014;2023-04-28T06:12:23;97744.31;;;14.33;95.13
23118;BME280;11728;50.624;6.014;2023-04-28T06:17:43;97750.47;;;14.34;95.56
23118;BME280;11728;50.624;6.014;2023-04-28T06:23:04;97754.13;;;14.31;96.18
23118;BME280;11728;50.624;6.014;2023-04-28T06:28:26;97757.72;;;14.30;97.11
23118;BME280;11728;50.624;6.014;2023-04-28T06:33:47;97766.63;;;14.29;98.04
23118;BME280;11728;50.624;6.014;2023-04-28T06:39:07;97760.00;;;14.38;98.20
23118;BME280;11728;50.624;6.014;2023-04-28T06:44:28;97760.47;;;14.47;98.58
23118;BME280;11728;50.624;6.014;2023-04-28T06:49:49;97752.53;;;14.64;99.04
23118;BME280;11728;50.624;6.014;2023-04-28T06:55:14;97741.28;;;14.77;99.46
23118;BME280;11728;50.624;6.014;2023-04-28T07:00:35;97729.09;;;14.90;99.43
23118;BME280;11728;50.624;6.014;2023-04-28T07:05:56;97721.47;;;15.01;99.94
23118;BME280;11728;50.624;6.014;2023-04-28T07:11:17;97739.13;;;15.21;100.00
23118;BME280;11728;50.624;6.014;2023-04-28T07:16:38;97742.63;;;15.21;100.00
23118;BME280;11728;50.624;6.014;2023-04-28T07:21:59;97760.69;;;15.15;100.00
23118;BME280;11728;50.624;6.014;2023-04-28T07:27:20;97758.31;;;15.09;100.00
23118;BME280;11728;50.624;6.014;2023-04-28T07:32:40;97765.81;;;15.01;100.00
23118;BME280;11728;50.624;6.014;2023-04-28T07:38:03;97763.59;;;15.10;100.00
23118;BME280;11728;50.624;6.014;2023-04-28T07:43:24;97771.38;;;15.32;100.00
23118;BME280;11728;50.624;6.014;2023-04-28T07:48:44;97782.81;;;15.34;100.00
23118;BME280;11728;50.624;6.014;2023-04-28T07:54:05;97777.28;;;15.20;100.00
23118;BME280;11728;50.624;6.014;2023-04-28T07:59:26;97774.06;;;15.13;100.00
23118;BME280;11728;50.624;6.014;2023-04-28T08:04:47;97782.56;;;15.03;100.00
23118;BME280;11728;50.624;6.014;2023-04-28T08:10:09;97783.06;;;15.11;100.00
23118;BME280;11728;50.624;6.014;2023-04-28T08:15:31;97784.56;;;15.16;100.00
23118;BME280;11728;50.624;6.014;2023-04-28T08:20:52;97777.81;;;15.28;100.00
23118;BME280;11728;50.624;6.014;2023-04-28T08:26:12;97786.31;;;15.34;100.00
23118;BME280;11728;50.624;6.014;2023-04-28T08:31:33;97792.31;;;15.39;100.00
23118;BME280;11728;50.624;6.014;2023-04-28T08:36:54;97793.63;;;15.47;100.00
23118;BME280;11728;50.624;6.014;2023-04-28T08:42:15;97795.97;;;15.53;100.00
23118;BME280;11728;50.624;6.014;2023-04-28T08:47:38;97795.53;;;15.62;100.00
23118;BME280;11728;50.624;6.014;2023-04-28T08:53:09;97793.19;;;15.73;100.00
23118;BME280;11728;50.624;6.014;2023-04-28T08:58:34;97793.59;;;15.83;100.00
23118;BME280;11728;50.624;6.014;2023-04-28T09:03:55;97802.56;;;15.97;100.00
23118;BME280;11728;50.624;6.014;2023-04-28T09:09:27;97793.66;;;15.98;100.00
23118;BME280;11728;50.624;6.014;2023-04-28T09:14:56;97796.63;;;16.09;100.00
23118;BME280;11728;50.624;6.014;2023-04-28T09:20:21;97801.53;;;16.16;100.00
23118;BME280;11728;50.624;6.014;2023-04-28T09:26:04;97792.25;;;16.08;100.00
23118;BME280;11728;50.624;6.014;2023-04-28T09:31:27;97804.50;;;16.27;100.00
23118;BME280;11728;50.624;6.014;2023-04-28T09:36:48;97797.38;;;16.28;100.00
23118;BME280;11728;50.624;6.014;2023-04-28T09:42:08;97792.28;;;16.40;100.00
23118;BME280;11728;50.624;6.014;2023-04-28T09:47:30;97790.09;;;16.64;100.00
23118;BME280;11728;50.624;6.014;2023-04-28T09:52:55;97795.06;;;16.54;100.00
23118;BME280;11728;50.624;6.014;2023-04-28T09:58:19;97788.88;;;16.54;100.00
23118;BME280;11728;50.624;6.014;2023-04-28T10:03:40;97786.28;;;16.52;100.00
23118;BME280;11728;50.624;6.014;2023-04-28T10:09:02;97783.72;;;16.51;100.00
23118;BME280;11728;50.624;6.014;2023-04-28T10:14:24;97793.31;;;16.38;100.00
23118;BME280;11728;50.624;6.014;2023-04-28T10:19:47;97789.03;;;16.51;100.00
23118;BME280;11728;50.624;6.014;2023-04-28T10:30:31;97775.44;;;20.85;93.04
23118;BME280;11728;50.624;6.014;2023-04-28T10:35:52;97767.75;;;21.52;90.87
23118;BME280;11728;50.624;6.014;2023-04-28T10:41:31;97764.28;;;21.63;87.43
23118;BME280;11728;50.624;6.014;2023-04-28T10:47:00;97760.19;;;22.04;82.52
23118;BME280;11728;50.624;6.014;2023-04-28T11:14:42;97726.63;;;25.91;64.68
23118;BME280;11728;50.624;6.014;2023-04-28T11:20:04;97723.84;;;27.39;61.17
23118;BME280;11728;50.624;6.014;2023-04-28T11:25:54;97710.72;;;28.14;53.74
23118;BME280;11728;50.624;6.014;2023-04-28T11:31:17;97716.69;;;28.17;53.31
23118;BME280;11728;50.624;6.014;2023-04-28T11:36:43;97724.94;;;28.68;51.01
23118;BME280;11728;50.624;6.014;2023-04-28T11:42:10;97703.41;;;29.00;47.49
23118;BME280;11728;50.624;6.014;2023-04-28T11:47:33;97711.94;;;29.38;46.04
23118;BME280;11728;50.624;6.014;2023-04-28T11:52:54;97708.59;;;29.19;45.89
23118;BME280;11728;50.624;6.014;2023-04-28T11:58:22;97704.69;;;28.88;44.68
23118;BME280;11728;50.624;6.014;2023-04-28T12:03:47;97707.69;;;28.00;45.26
23118;BME280;11728;50.624;6.014;2023-04-28T12:09:18;97705.03;;;26.56;47.81
23118;BME280;11728;50.624;6.014;2023-04-28T12:20:39;97709.41;;;25.15;50.95
23118;BME280;11728;50.624;6.014;2023-04-28T12:26:01;97701.84;;;25.96;49.55
23118;BME280;11728;50.624;6.014;2023-04-28T12:31:22;97704.28;;;27.36;47.24
23118;BME280;11728;50.624;6.014;2023-04-28T12:36:42;97699.78;;;28.66;44.61
23118;BME280;11728;50.624;6.014;2023-04-28T12:42:06;97691.66;;;28.74;43.28
23118;BME280;11728;50.624;6.014;2023-04-28T12:47:27;97697.78;;;29.35;41.50
23118;BME280;11728;50.624;6.014;2023-04-28T12:52:48;97705.06;;;26.92;43.48
23118;BME280;11728;50.624;6.014;2023-04-28T12:58:09;97719.66;;;25.21;47.99
23118;BME280;11728;50.624;6.014;2023-04-28T13:03:29;97720.25;;;26.66;46.68
23118;BME280;11728;50.624;6.014;2023-04-28T13:08:50;97708.41;;;27.67;43.85
23118;BME280;11728;50.624;6.014;2023-04-28T13:14:11;97708.25;;;27.86;41.92
23118;BME280;11728;50.624;6.014;2023-04-28T13:19:32;97708.59;;;26.38;42.59
23118;BME280;11728;50.624;6.014;2023-04-28T13:24:53;97724.81;;;24.65;46.27
23118;BME280;11728;50.624;6.014;2023-04-28T13:30:15;97714.47;;;24.08;49.84
23118;BME280;11728;50.624;6.014;2023-04-28T13:35:36;97709.75;;;25.60;46.00
23118;BME280;11728;50.624;6.014;2023-04-28T13:40:57;97716.78;;;26.19;44.45
23118;BME280;11728;50.624;6.014;2023-04-28T13:46:18;97704.31;;;25.31;43.92
23118;BME280;11728;50.624;6.014;2023-04-28T13:51:38;97720.16;;;25.64;43.53
23118;BME280;11728;50.624;6.014;2023-04-28T13:56:59;97722.03;;;25.73;43.37
23118;BME280;11728;50.624;6.014;2023-04-28T14:28:53;97747.31;;;24.75;46.42
23118;BME280;11728;50.624;6.014;2023-04-28T14:34:14;97732.78;;;24.46;47.17
23118;BME280;11728;50.624;6.014;2023-04-28T14:39:36;97747.00;;;24.07;47.97
23118;BME280;11728;50.624;6.014;2023-04-28T14:44:58;97746.97;;;23.33;49.15
23118;BME280;11728;50.624;6.014;2023-04-28T14:50:19;97742.00;;;23.49;50.12
23118;BME280;11728;50.624;6.014;2023-04-28T14:55:39;97761.16;;;23.46;50.36
23118;BME280;11728;50.624;6.014;2023-04-28T15:01:00;97769.97;;;23.48;50.09
23118;BME280;11728;50.624;6.014;2023-04-28T15:06:22;97773.66;;;23.36;49.19
23118;BME280;11728;50.624;6.014;2023-04-28T15:11:43;97781.59;;;22.50;50.56
23118;BME280;11728;50.624;6.014;2023-04-28T15:17:04;97778.19;;;22.48;51.89
23118;BME280;11728;50.624;6.014;2023-04-28T15:22:25;97779.25;;;22.46;51.92
23118;BME280;11728;50.624;6.014;2023-04-28T15:27:46;97781.53;;;21.94;52.95
23118;BME280;11728;50.624;6.014;2023-04-28T15:33:07;97793.59;;;21.66;53.89
23118;BME280;11728;50.624;6.014;2023-04-28T15:38:36;97794.72;;;21.51;54.64
23118;BME280;11728;50.624;6.014;2023-04-28T15:43:57;97802.00;;;21.25;54.82
23118;BME280;11728;50.624;6.014;2023-04-28T15:49:19;97811.53;;;20.81;56.23
23118;BME280;11728;50.624;6.014;2023-04-28T15:54:41;97820.09;;;20.61;57.57
23118;BME280;11728;50.624;6.014;2023-04-28T16:00:02;97824.13;;;20.17;57.93
23118;BME280;11728;50.624;6.014;2023-04-28T16:05:23;97836.03;;;19.87;57.77
23118;BME280;11728;50.624;6.014;2023-04-28T16:10:44;97830.16;;;19.68;58.44
23118;BME280;11728;50.624;6.014;2023-04-28T16:16:05;97847.91;;;19.56;58.70
23118;BME280;11728;50.624;6.014;2023-04-28T16:21:27;97852.63;;;19.39;59.55
23118;BME280;11728;50.624;6.014;2023-04-28T16:26:49;97853.41;;;19.41;58.81
23118;BME280;11728;50.624;6.014;2023-04-28T16:32:10;97859.94;;;19.09;58.83
23118;BME280;11728;50.624;6.014;2023-04-28T16:37:31;97858.19;;;18.94;59.71
23118;BME280;11728;50.624;6.014;2023-04-28T16:42:52;97869.72;;;19.10;59.93
23118;BME280;11728;50.624;6.014;2023-04-28T16:48:17;97867.19;;;19.21;59.63
23118;BME280;11728;50.624;6.014;2023-04-28T16:53:38;97872.81;;;18.89;59.70
23118;BME280;11728;50.624;6.014;2023-04-28T16:58:58;97872.16;;;18.85;59.93
23118;BME280;11728;50.624;6.014;2023-04-28T17:04:19;97870.41;;;18.70;60.62
23118;BME280;11728;50.624;6.014;2023-04-28T17:09:40;97880.53;;;18.52;61.00
23118;BME280;11728;50.624;6.014;2023-04-28T17:15:01;97877.16;;;18.34;61.78
23118;BME280;11728;50.624;6.014;2023-04-28T17:20:22;97874.38;;;18.36;62.08
23118;BME280;11728;50.624;6.014;2023-04-28T17:25:42;97874.22;;;18.39;62.71
23118;BME280;11728;50.624;6.014;2023-04-28T17:31:03;97881.63;;;18.34;62.76
23118;BME280;11728;50.624;6.014;2023-04-28T17:36:24;97884.09;;;18.23;63.23
23118;BME280;11728;50.624;6.014;2023-04-28T17:41:48;97880.66;;;18.21;63.81
23118;BME280;11728;50.624;6.014;2023-04-28T17:47:09;97886.59;;;18.10;64.26
23118;BME280;11728;50.624;6.014;2023-04-28T17:52:29;97887.03;;;18.03;64.72
23118;BME280;11728;50.624;6.014;2023-04-28T17:57:51;97895.81;;;18.05;64.80
23118;BME280;11728;50.624;6.014;2023-04-28T18:03:12;97891.09;;;18.10;65.36
23118;BME280;11728;50.624;6.014;2023-04-28T18:08:34;97894.97;;;18.04;65.47
23118;BME280;11728;50.624;6.014;2023-04-28T18:13:55;97910.53;;;17.82;66.19
23118;BME280;11728;50.624;6.014;2023-04-28T18:19:17;97903.13;;;17.72;67.05
23118;BME280;11728;50.624;6.014;2023-04-28T18:24:38;97899.00;;;17.67;67.87
23118;BME280;11728;50.624;6.014;2023-04-28T18:29:59;97919.84;;;17.60;68.36
23118;BME280;11728;50.624;6.014;2023-04-28T18:35:20;97912.44;;;17.50;68.81
23118;BME280;11728;50.624;6.014;2023-04-28T18:40:40;97920.59;;;17.31;70.02
23118;BME280;11728;50.624;6.014;2023-04-28T18:46:01;97924.97;;;17.17;70.57
23118;BME280;11728;50.624;6.014;2023-04-28T18:51:23;97924.69;;;16.89;71.21
23118;BME280;11728;50.624;6.014;2023-04-28T18:56:44;97940.38;;;16.46;70.51
23118;BME280;11728;50.624;6.014;2023-04-28T19:02:05;97940.03;;;16.18;70.06
23118;BME280;11728;50.624;6.014;2023-04-28T19:07:26;97957.84;;;15.99;70.03
23118;BME280;11728;50.624;6.014;2023-04-28T19:12:47;97970.06;;;15.86;70.32
23118;BME280;11728;50.624;6.014;2023-04-28T19:18:08;97981.00;;;15.80;70.53
23118;BME280;11728;50.624;6.014;2023-04-28T19:23:30;97987.19;;;15.81;70.67
23118;BME280;11728;50.624;6.014;2023-04-28T19:28:51;97983.81;;;15.77;70.81
23118;BME280;11728;50.624;6.014;2023-04-28T19:34:12;97993.59;;;15.77;70.94
23118;BME280;11728;50.624;6.014;2023-04-28T19:39:33;98003.16;;;15.81;70.65
23118;BME280;11728;50.624;6.014;2023-04-28T19:44:56;98001.38;;;15.81;70.48
23118;BME280;11728;50.624;6.014;2023-04-28T19:50:17;98013.09;;;15.77;70.65
23118;BME280;11728;50.624;6.014;2023-04-28T19:55:38;98016.19;;;15.68;71.13
23118;BME280;11728;50.624;6.014;2023-04-28T20:00:59;98023.41;;;15.66;71.58
23118;BME280;11728;50.624;6.014;2023-04-28T20:06:19;98024.03;;;15.71;71.70
23118;BME280;11728;50.624;6.014;2023-04-28T20:11:41;98027.94;;;15.64;72.37
23118;BME280;11728;50.624;6.014;2023-04-28T20:17:02;98022.22;;;15.53;73.17
23118;BME280;11728;50.624;6.014;2023-04-28T20:22:23;98028.94;;;15.43;74.21
23118;BME280;11728;50.624;6.014;2023-04-28T20:27:44;98034.50;;;15.38;75.07
23118;BME280;11728;50.624;6.014;2023-04-28T20:33:07;98044.09;;;15.22;76.13
23118;BME280;11728;50.624;6.014;2023-04-28T20:38:28;98052.28;;;15.17;76.78
23118;BME280;11728;50.624;6.014;2023-04-28T20:43:49;98052.56;;;15.11;77.35
23118;BME280;11728;50.624;6.014;2023-04-28T20:49:11;98051.63;;;14.92;79.34
23118;BME280;11728;50.624;6.014;2023-04-28T20:54:33;98051.28;;;14.80;80.92
23118;BME280;11728;50.624;6.014;2023-04-28T20:59:55;98052.69;;;14.68;82.04
23118;BME280;11728;50.624;6.014;2023-04-28T21:05:16;98049.47;;;14.60;83.10
23118;BME280;11728;50.624;6.014;2023-04-28T21:10:37;98048.16;;;14.51;84.23
23118;BME280;11728;50.624;6.014;2023-04-28T21:15:58;98054.47;;;14.48;84.99
23118;BME280;11728;50.624;6.014;2023-04-28T21:21:19;98055.50;;;14.44;85.36
23118;BME280;11728;50.624;6.014;2023-04-28T21:26:39;98055.59;;;14.43;85.99
23118;BME280;11728;50.624;6.014;2023-04-28T21:32:00;98051.13;;;14.43;86.07
23118;BME280;11728;50.624;6.014;2023-04-28T21:37:21;98054.84;;;14.39;86.52
23118;BME280;11728;50.624;6.014;2023-04-28T21:42:42;98050.47;;;14.38;86.88
23118;BME280;11728;50.624;6.014;2023-04-28T21:48:03;98045.69;;;14.46;87.27
23118;BME280;11728;50.624;6.014;2023-04-28T21:53:24;98041.41;;;14.42;87.95
23118;BME280;11728;50.624;6.014;2023-04-28T21:58:44;98044.97;;;14.43;88.88
23118;BME280;11728;50.624;6.014;2023-04-28T22:04:05;98038.91;;;14.39;89.57
23118;BME280;11728;50.624;6.014;2023-04-28T22:09:27;98047.69;;;14.41;90.24
23118;BME280;11728;50.624;6.014;2023-04-28T22:14:48;98054.69;;;14.42;90.67
23118;BME280;11728;50.624;6.014;2023-04-28T22:20:09;98056.97;;;14.31;91.72
23118;BME280;11728;50.624;6.014;2023-04-28T22:25:30;98063.00;;;14.13;93.40
23118;BME280;11728;50.624;6.014;2023-04-28T22:30:51;98073.06;;;13.82;95.87
23118;BME280;11728;50.624;6.014;2023-04-28T22:36:15;98072.06;;;13.64;96.22
23118;BME280;11728;50.624;6.014;2023-04-28T22:41:35;98076.22;;;13.48;96.57
23118;BME280;11728;50.624;6.014;2023-04-28T22:46:56;98087.06;;;13.42;96.29
23118;BME280;11728;50.624;6.014;2023-04-28T22:52:17;98083.56;;;13.41;95.86
23118;BME280;11728;50.624;6.014;2023-04-28T22:57:39;98085.38;;;13.39;95.76
23118;BME280;11728;50.624;6.014;2023-04-28T23:03:00;98085.22;;;13.44;95.44
23118;BME280;11728;50.624;6.014;2023-04-28T23:08:21;98087.16;;;13.39;95.31
23118;BME280;11728;50.624;6.014;2023-04-28T23:13:42;98095.88;;;13.42;95.24
23118;BME280;11728;50.624;6.014;2023-04-28T23:19:03;98096.84;;;13.40;95.00
23118;BME280;11728;50.624;6.014;2023-04-28T23:24:24;98099.06;;;13.27;95.32
23118;BME280;11728;50.624;6.014;2023-04-28T23:29:46;98096.06;;;13.13;95.78
23118;BME280;11728;50.624;6.014;2023-04-28T23:35:07;98100.69;;;13.08;95.83
23118;BME280;11728;50.624;6.014;2023-04-28T23:40:28;98107.81;;;13.06;95.58
23118;BME280;11728;50.624;6.014;2023-04-28T23:45:49;98113.28;;;13.02;95.68
23118;BME280;11728;50.624;6.014;2023-04-28T23:51:10;98102.94;;;12.95;95.30
23118;BME280;11728;50.624;6.014;2023-04-28T23:56:31;98109.38;;;12.88;95.10
